Jessup, Pennsylvania
Current Conditions -  °F | °C
As of 2:54 AM on Tuesday 27 Jan 2015 (Local Time) from KAVP Reporting Station
Overcast Overcast  
Wind Chill: 22°   Ceiling: 8000
Heat Index: 22°   Visibility: 10mi
Dew Point: 14°   Wind: 3mph
Humidity: 72%   Direction: 360°N
Pressure: 29.74"   Gusts: NA
Location:  41.47°N, 75.56°W
Report Text: KAVP 270754Z AUTO 36003KT 10SM SCT021 SCT060 OVC080 M06/M10 A2974 RMK AO2 SLP080 T10561100
Loading
Personal Weather Stations






























Interactive Weather Map New forecast layout! Learn more

10-Day Weather Forecast

Advertisements
Track Severe Weather on mobile